createdAt,value
2022-11-20T00:02:22.459Z,4.67
2022-11-20T00:04:48.748Z,4.52
2022-11-20T00:07:15.033Z,4.41
2022-11-20T00:09:41.394Z,4.23
2022-11-20T00:12:07.635Z,4.08
2022-11-20T00:14:33.884Z,4.10
2022-11-20T00:17:00.182Z,4.12
2022-11-20T00:19:26.429Z,4.22
2022-11-20T00:21:52.657Z,4.21
2022-11-20T00:24:19.082Z,4.14
2022-11-20T00:26:45.297Z,3.90
2022-11-20T00:29:11.522Z,3.98
2022-11-20T00:31:37.758Z,3.69
2022-11-20T00:34:04.020Z,3.75
2022-11-20T00:36:30.273Z,3.66
2022-11-20T00:38:56.522Z,3.52
2022-11-20T00:41:22.769Z,3.70
2022-11-20T00:43:49.012Z,3.61
2022-11-20T00:46:15.253Z,3.25
2022-11-20T00:48:41.487Z,3.42
2022-11-20T00:51:07.752Z,3.26
2022-11-20T00:53:33.996Z,3.39
2022-11-20T00:56:00.215Z,3.48
2022-11-20T00:58:26.466Z,3.50
2022-11-20T01:00:52.752Z,3.42
2022-11-20T01:03:24.028Z,3.31
2022-11-20T01:05:52.986Z,3.41
2022-11-20T01:08:19.240Z,3.52
2022-11-20T01:10:45.513Z,3.41
2022-11-20T01:13:11.750Z,3.38
2022-11-20T01:15:37.998Z,3.33
2022-11-20T01:18:04.226Z,3.28
2022-11-20T01:20:30.454Z,3.27
2022-11-20T01:22:56.697Z,3.33
2022-11-20T01:25:22.924Z,3.26
2022-11-20T01:27:49.185Z,3.16
2022-11-20T01:30:15.414Z,2.82
2022-11-20T01:32:41.634Z,3.00
2022-11-20T01:35:07.878Z,2.99
2022-11-20T01:37:34.116Z,2.94
2022-11-20T01:40:00.406Z,2.92
2022-11-20T01:42:26.658Z,2.87
2022-11-20T01:44:52.916Z,2.80
2022-11-20T01:47:19.144Z,2.74
2022-11-20T01:49:45.374Z,2.79
2022-11-20T01:52:11.607Z,2.80
2022-11-20T01:54:37.847Z,2.74
2022-11-20T01:57:04.081Z,2.63
2022-11-20T01:59:30.322Z,2.62
2022-11-20T02:01:56.560Z,2.46
2022-11-20T02:04:22.858Z,2.59
2022-11-20T02:06:49.115Z,2.64
2022-11-20T02:09:15.353Z,2.59
2022-11-20T02:11:41.609Z,2.63
2022-11-20T02:14:07.833Z,2.58
2022-11-20T02:16:34.074Z,2.63
2022-11-20T02:19:00.303Z,2.60
2022-11-20T02:21:26.578Z,2.52
2022-11-20T02:23:52.802Z,2.51
2022-11-20T02:26:19.040Z,2.54
2022-11-20T02:28:45.309Z,2.63
2022-11-20T02:31:11.528Z,2.55
2022-11-20T02:33:37.779Z,2.54
2022-11-20T02:36:04.028Z,2.50
2022-11-20T02:38:30.248Z,2.42
2022-11-20T02:40:56.487Z,2.45
2022-11-20T02:43:22.747Z,2.38
2022-11-20T02:45:48.979Z,2.38
2022-11-20T02:48:15.218Z,2.54
2022-11-20T02:50:41.460Z,2.38
2022-11-20T02:53:07.677Z,2.49
2022-11-20T02:55:33.918Z,2.30
2022-11-20T02:58:00.154Z,2.11
2022-11-20T03:00:26.369Z,2.35
2022-11-20T03:02:52.809Z,2.35
2022-11-20T03:05:19.024Z,2.28
2022-11-20T03:07:45.265Z,2.36
2022-11-20T03:10:11.494Z,2.37
2022-11-20T03:12:37.720Z,2.43
2022-11-20T03:15:03.978Z,2.59
2022-11-20T03:17:30.234Z,2.45
2022-11-20T03:19:56.494Z,2.49
2022-11-20T03:22:22.737Z,2.47
2022-11-20T03:24:48.989Z,2.58
2022-11-20T03:27:15.243Z,2.58
2022-11-20T03:29:41.492Z,2.46
2022-11-20T03:32:07.747Z,2.46
2022-11-20T03:34:33.995Z,2.44
2022-11-20T03:37:00.242Z,2.34
2022-11-20T03:39:26.493Z,2.42
2022-11-20T03:41:52.746Z,2.55
2022-11-20T03:44:18.956Z,2.59
2022-11-20T03:46:45.195Z,2.54
2022-11-20T03:49:11.432Z,2.40
2022-11-20T03:51:37.670Z,2.46
2022-11-20T03:54:03.909Z,2.40
2022-11-20T03:56:30.199Z,2.31
2022-11-20T03:58:56.419Z,2.31
2022-11-20T04:01:22.741Z,2.24
2022-11-20T04:03:49.032Z,2.18
2022-11-20T04:06:15.376Z,2.22
2022-11-20T04:08:41.647Z,2.27
2022-11-20T04:11:07.901Z,2.26
2022-11-20T04:13:50.275Z,2.14
2022-11-20T04:16:16.525Z,2.17
2022-11-20T04:18:42.755Z,1.94
2022-11-20T04:21:09.080Z,1.85
2022-11-20T04:23:35.364Z,2.04
2022-11-20T04:26:01.597Z,2.05
2022-11-20T04:28:27.812Z,2.19
2022-11-20T04:30:54.060Z,2.25
2022-11-20T04:33:20.305Z,2.20
2022-11-20T04:35:46.549Z,2.14
2022-11-20T04:38:12.773Z,2.17
2022-11-20T04:40:38.994Z,2.29
2022-11-20T04:43:05.256Z,2.10
2022-11-20T04:45:31.487Z,1.97
2022-11-20T04:47:57.710Z,2.02
2022-11-20T04:50:23.931Z,1.84
2022-11-20T04:52:50.490Z,1.88
2022-11-20T04:55:16.739Z,1.98
2022-11-20T04:57:43.001Z,2.06
2022-11-20T05:00:09.244Z,2.16
2022-11-20T05:02:35.484Z,2.10
2022-11-20T05:05:01.728Z,2.01
2022-11-20T05:07:28.126Z,2.07
2022-11-20T05:09:54.450Z,1.95
2022-11-20T05:12:20.712Z,2.13
2022-11-20T05:14:46.952Z,2.19
2022-11-20T05:17:13.390Z,2.13
2022-11-20T05:19:39.656Z,2.05
2022-11-20T05:22:05.885Z,2.04
2022-11-20T05:24:32.125Z,2.16
2022-11-20T05:26:58.372Z,2.04
2022-11-20T05:29:24.614Z,2.04
2022-11-20T05:31:50.848Z,2.20
2022-11-20T05:34:17.152Z,2.29
2022-11-20T05:36:43.404Z,2.17
2022-11-20T05:39:09.642Z,2.17
2022-11-20T05:41:36.342Z,2.38
2022-11-20T05:44:02.572Z,2.49
2022-11-20T05:46:29.608Z,2.55
2022-11-20T05:48:56.074Z,2.53
2022-11-20T05:51:22.305Z,2.70
2022-11-20T05:53:48.976Z,2.85
2022-11-20T05:56:15.297Z,2.86
2022-11-20T05:58:41.558Z,2.97
2022-11-20T06:01:07.788Z,3.01
2022-11-20T06:03:34.026Z,3.02
2022-11-20T06:06:00.281Z,3.14
2022-11-20T06:08:26.530Z,3.06
2022-11-20T06:10:52.770Z,2.97
2022-11-20T06:13:19.024Z,2.97
2022-11-20T06:15:45.271Z,3.02
2022-11-20T06:18:11.516Z,3.08
2022-11-20T06:20:41.964Z,3.22
2022-11-20T06:23:08.492Z,3.34
2022-11-20T06:25:34.723Z,3.03
2022-11-20T06:28:00.971Z,3.15
2022-11-20T06:30:27.200Z,3.26
2022-11-20T06:32:53.433Z,3.01
2022-11-20T06:35:19.682Z,2.96
2022-11-20T06:37:45.914Z,2.79
2022-11-20T06:40:12.162Z,2.91
2022-11-20T06:42:38.402Z,2.83
2022-11-20T06:45:04.625Z,2.76
2022-11-20T06:47:30.877Z,2.80
2022-11-20T06:49:57.118Z,2.70
2022-11-20T06:52:23.376Z,2.68
2022-11-20T06:54:49.629Z,2.65
2022-11-20T06:57:15.889Z,2.77
2022-11-20T06:59:42.120Z,2.83
2022-11-20T07:02:08.350Z,2.90
2022-11-20T07:04:34.594Z,3.00
2022-11-20T07:07:00.863Z,2.99
2022-11-20T07:09:27.383Z,3.10
2022-11-20T07:11:53.960Z,3.26
2022-11-20T07:14:20.211Z,3.26
2022-11-20T07:16:46.443Z,3.46
2022-11-20T07:19:12.707Z,3.64
2022-11-20T07:21:38.940Z,3.61
2022-11-20T07:24:05.176Z,3.67
2022-11-20T07:26:31.431Z,3.73
2022-11-20T07:28:57.643Z,3.77
2022-11-20T07:31:23.866Z,3.74
2022-11-20T07:33:50.089Z,3.50
2022-11-20T07:36:16.334Z,3.65
2022-11-20T07:38:42.580Z,3.70
2022-11-20T07:41:08.839Z,3.39
2022-11-20T07:43:40.859Z,3.27
2022-11-20T07:46:07.616Z,3.05
2022-11-20T07:48:33.868Z,3.42
2022-11-20T07:51:00.121Z,3.58
2022-11-20T07:53:26.370Z,3.63
2022-11-20T07:55:52.596Z,3.67
2022-11-20T07:58:18.843Z,3.81
2022-11-20T08:00:45.093Z,3.89
2022-11-20T08:03:11.369Z,4.02
2022-11-20T08:05:37.595Z,4.12
2022-11-20T08:08:03.821Z,4.06
2022-11-20T08:10:30.260Z,4.18
2022-11-20T08:12:56.477Z,4.33
2022-11-20T08:15:22.736Z,4.37
2022-11-20T08:18:08.260Z,4.55
2022-11-20T08:20:35.222Z,4.60
2022-11-20T08:23:01.452Z,4.60
2022-11-20T08:25:27.697Z,4.57
2022-11-20T08:27:59.256Z,4.55
2022-11-20T08:30:26.493Z,4.66
2022-11-20T08:32:52.714Z,4.72
2022-11-20T08:35:18.972Z,4.81
2022-11-20T08:37:45.323Z,4.94
2022-11-20T08:40:13.759Z,4.53
2022-11-20T08:42:43.255Z,4.92
2022-11-20T08:45:09.505Z,5.00
2022-11-20T08:47:35.751Z,5.06
2022-11-20T08:50:01.986Z,5.15
2022-11-20T08:52:28.321Z,5.25
2022-11-20T08:54:54.633Z,5.13
2022-11-20T08:57:20.906Z,5.05
2022-11-20T09:02:33.380Z,5.14
2022-11-20T09:04:59.617Z,5.00
2022-11-20T09:07:25.966Z,4.82
2022-11-20T09:10:16.455Z,4.91
2022-11-20T09:12:38.722Z,4.87
2022-11-20T09:15:05.096Z,4.52
2022-11-20T09:17:31.326Z,4.78
2022-11-20T09:19:57.552Z,4.96
2022-11-20T09:22:23.804Z,5.00
2022-11-20T09:24:50.024Z,4.85
2022-11-20T09:27:18.041Z,5.05
2022-11-20T09:29:44.272Z,4.96
2022-11-20T09:32:10.498Z,5.11
2022-11-20T09:34:36.739Z,5.05
2022-11-20T09:37:06.328Z,5.00
2022-11-20T09:39:34.182Z,4.69
2022-11-20T09:42:00.436Z,4.67
2022-11-20T09:44:26.673Z,4.62
2022-11-20T09:46:52.897Z,4.66
2022-11-20T09:49:19.840Z,4.75
2022-11-20T09:51:46.307Z,4.91
2022-11-20T09:54:12.555Z,4.99
2022-11-20T09:56:38.872Z,4.91
2022-11-20T09:59:05.112Z,4.82
2022-11-20T10:01:31.371Z,4.82
2022-11-20T10:03:57.612Z,4.99
2022-11-20T10:06:23.852Z,5.02
2022-11-20T10:08:50.101Z,4.68
2022-11-20T10:11:16.329Z,4.90
2022-11-20T10:13:42.569Z,4.96
2022-11-20T10:16:08.803Z,5.14
2022-11-20T10:18:35.078Z,5.19
2022-11-20T10:21:01.342Z,5.18
2022-11-20T10:23:27.573Z,4.80
2022-11-20T10:25:53.880Z,4.95
2022-11-20T10:28:20.128Z,4.89
2022-11-20T10:30:46.424Z,4.79
2022-11-20T10:33:12.652Z,4.31
2022-11-20T10:35:38.884Z,4.61
2022-11-20T10:38:05.101Z,4.89
2022-11-20T10:40:31.321Z,5.13
2022-11-20T10:42:57.790Z,5.07
2022-11-20T10:45:24.084Z,5.11
2022-11-20T10:47:50.317Z,5.10
2022-11-20T10:50:21.689Z,5.40
2022-11-20T10:52:48.571Z,5.54
2022-11-20T10:55:14.834Z,5.60
2022-11-20T10:57:41.171Z,5.49
2022-11-20T11:00:07.444Z,5.08
2022-11-20T11:02:33.704Z,5.30
2022-11-20T11:04:59.933Z,5.43
2022-11-20T11:07:26.182Z,5.27
2022-11-20T11:09:52.473Z,5.58
2022-11-20T11:12:18.704Z,5.50
2022-11-20T11:14:44.929Z,5.64
2022-11-20T11:17:11.156Z,5.55
2022-11-20T11:19:37.413Z,5.48
2022-11-20T11:22:04.005Z,5.79
2022-11-20T11:24:45.455Z,5.86
2022-11-20T11:27:16.485Z,5.81
2022-11-20T11:29:43.772Z,6.05
2022-11-20T11:32:10.166Z,6.02
2022-11-20T11:34:36.610Z,5.92
2022-11-20T11:37:02.847Z,6.09
2022-11-20T11:39:29.155Z,6.02
2022-11-20T11:41:55.393Z,6.15
2022-11-20T11:44:21.599Z,6.19
2022-11-20T11:46:47.941Z,6.20
2022-11-20T11:49:14.195Z,6.08
2022-11-20T11:51:40.464Z,6.02
2022-11-20T11:54:06.704Z,6.14
2022-11-20T11:56:32.940Z,6.18
2022-11-20T11:58:59.208Z,6.22
2022-11-20T12:01:25.433Z,6.22
2022-11-20T12:03:51.648Z,6.08
2022-11-20T12:06:19.933Z,5.94
2022-11-20T12:08:46.152Z,5.88
2022-11-20T12:11:12.383Z,5.89
2022-11-20T12:13:38.622Z,5.93
2022-11-20T12:16:04.842Z,5.95
2022-11-20T12:18:31.120Z,6.06
2022-11-20T12:20:57.345Z,5.79
2022-11-20T12:23:23.575Z,5.61
2022-11-20T12:25:49.820Z,5.47
2022-11-20T12:28:16.058Z,5.41
2022-11-20T12:30:42.308Z,5.38
2022-11-20T12:33:08.549Z,5.50
2022-11-20T12:35:34.783Z,5.56
2022-11-20T12:38:01.015Z,5.57
2022-11-20T12:40:27.259Z,5.54
2022-11-20T12:42:53.482Z,5.45
2022-11-20T12:45:19.719Z,5.52
2022-11-20T12:47:45.984Z,5.52
2022-11-20T12:50:12.228Z,5.44
2022-11-20T12:52:38.546Z,5.55
2022-11-20T12:55:04.774Z,5.54
2022-11-20T12:57:32.399Z,5.47
2022-11-20T12:59:58.649Z,5.50
2022-11-20T13:02:24.868Z,5.38
2022-11-20T13:04:51.168Z,5.28
2022-11-20T13:07:17.457Z,5.32
2022-11-20T13:09:43.762Z,5.28
2022-11-20T13:12:10.021Z,5.27
2022-11-20T13:14:36.269Z,5.33
2022-11-20T13:17:06.056Z,5.33
2022-11-20T13:19:34.003Z,5.29
2022-11-20T13:22:00.254Z,5.32
2022-11-20T13:24:26.529Z,5.16
2022-11-20T13:26:52.777Z,5.18
2022-11-20T13:29:19.020Z,5.13
2022-11-20T13:31:45.278Z,5.16
2022-11-20T13:34:11.582Z,5.12
2022-11-20T13:36:37.865Z,5.18
2022-11-20T13:39:04.138Z,5.27
2022-11-20T13:41:30.379Z,5.30
2022-11-20T13:43:56.631Z,5.29
2022-11-20T13:46:22.874Z,5.15
2022-11-20T13:48:49.106Z,5.06
2022-11-20T13:51:15.363Z,4.91
2022-11-20T13:53:41.606Z,4.92
2022-11-20T13:56:07.865Z,4.87
2022-11-20T13:58:34.114Z,4.95
2022-11-20T14:01:00.407Z,4.91
2022-11-20T14:03:58.561Z,4.89
2022-11-20T14:06:12.892Z,4.90
2022-11-20T14:08:39.147Z,4.83
2022-11-20T14:11:05.369Z,4.55
2022-11-20T14:13:31.609Z,4.72
2022-11-20T14:15:57.910Z,4.81
2022-11-20T14:18:24.126Z,4.75
2022-11-20T14:20:50.394Z,4.82
2022-11-20T14:23:16.613Z,4.89
2022-11-20T14:25:42.907Z,4.98
2022-11-20T14:28:09.158Z,5.00
2022-11-20T14:30:35.410Z,4.92
2022-11-20T14:33:01.659Z,4.82
2022-11-20T14:35:27.893Z,4.82
2022-11-20T14:37:54.141Z,4.79
2022-11-20T14:40:20.366Z,4.75
2022-11-20T14:42:46.598Z,4.76
2022-11-20T14:45:12.863Z,4.82
2022-11-20T14:47:39.109Z,4.94
2022-11-20T14:50:09.842Z,5.06
2022-11-20T14:52:36.358Z,5.12
2022-11-20T14:55:02.622Z,5.03
2022-11-20T14:57:28.926Z,4.82
2022-11-20T14:59:55.180Z,4.76
2022-11-20T15:02:21.408Z,4.49
2022-11-20T15:04:47.668Z,4.62
2022-11-20T15:07:13.991Z,4.67
2022-11-20T15:09:40.285Z,4.66
2022-11-20T15:12:06.509Z,4.70
2022-11-20T15:14:32.759Z,4.78
2022-11-20T15:16:59.021Z,4.86
2022-11-20T15:19:25.244Z,4.86
2022-11-20T15:21:51.480Z,4.93
2022-11-20T15:24:17.741Z,4.93
2022-11-20T15:26:43.983Z,4.81
2022-11-20T15:29:10.245Z,4.75
2022-11-20T15:31:36.470Z,4.55
2022-11-20T15:34:02.689Z,4.70
2022-11-20T15:36:28.964Z,4.68
2022-11-20T15:38:55.220Z,4.55
2022-11-20T15:41:21.458Z,4.77
2022-11-20T15:43:47.691Z,4.75
2022-11-20T15:46:13.950Z,4.82
2022-11-20T15:48:46.249Z,4.69
